sensor_id;sensor_type;location;lat;lon;timestamp;temperature;humidity
26964;DHT22;14521;48.148;-1.656;2024-03-08T00:00:52;18.70;80.00
26964;DHT22;14521;48.148;-1.656;2024-03-08T00:04:15;18.70;80.20
26964;DHT22;14521;48.148;-1.656;2024-03-08T00:07:38;18.70;80.30
26964;DHT22;14521;48.148;-1.656;2024-03-08T00:11:01;18.70;80.10
26964;DHT22;14521;48.148;-1.656;2024-03-08T00:14:23;18.70;80.20
26964;DHT22;14521;48.148;-1.656;2024-03-08T00:17:46;18.70;80.10
26964;DHT22;14521;48.148;-1.656;2024-03-08T00:21:10;18.60;80.00
26964;DHT22;14521;48.148;-1.656;2024-03-08T00:24:34;18.70;80.00
26964;DHT22;14521;48.148;-1.656;2024-03-08T00:27:56;18.60;79.90
26964;DHT22;14521;48.148;-1.656;2024-03-08T00:31:18;18.60;80.00
26964;DHT22;14521;48.148;-1.656;2024-03-08T00:34:41;18.60;80.10
26964;DHT22;14521;48.148;-1.656;2024-03-08T00:38:03;18.60;80.00
26964;DHT22;14521;48.148;-1.656;2024-03-08T00:41:25;18.60;79.90
26964;DHT22;14521;48.148;-1.656;2024-03-08T00:44:48;18.60;80.10
26964;DHT22;14521;48.148;-1.656;2024-03-08T00:48:13;18.60;80.10
26964;DHT22;14521;48.148;-1.656;2024-03-08T00:51:36;18.60;80.00
26964;DHT22;14521;48.148;-1.656;2024-03-08T00:54:58;18.60;79.90
26964;DHT22;14521;48.148;-1.656;2024-03-08T00:58:21;18.60;80.10
26964;DHT22;14521;48.148;-1.656;2024-03-08T01:01:46;18.60;80.10
26964;DHT22;14521;48.148;-1.656;2024-03-08T01:05:08;18.50;80.00
26964;DHT22;14521;48.148;-1.656;2024-03-08T01:08:30;18.60;80.80
26964;DHT22;14521;48.148;-1.656;2024-03-08T01:11:53;18.60;80.10
26964;DHT22;14521;48.148;-1.656;2024-03-08T01:15:17;18.50;80.00
26964;DHT22;14521;48.148;-1.656;2024-03-08T01:18:39;18.60;80.10
26964;DHT22;14521;48.148;-1.656;2024-03-08T01:22:01;18.50;80.00
26964;DHT22;14521;48.148;-1.656;2024-03-08T01:25:24;18.50;79.90
26964;DHT22;14521;48.148;-1.656;2024-03-08T01:28:46;18.50;80.10
26964;DHT22;14521;48.148;-1.656;2024-03-08T01:32:08;18.50;80.00
26964;DHT22;14521;48.148;-1.656;2024-03-08T01:35:30;18.50;80.10
26964;DHT22;14521;48.148;-1.656;2024-03-08T01:38:53;18.50;80.00
26964;DHT22;14521;48.148;-1.656;2024-03-08T01:42:15;18.50;80.10
26964;DHT22;14521;48.148;-1.656;2024-03-08T01:45:40;18.50;80.10
26964;DHT22;14521;48.148;-1.656;2024-03-08T01:49:03;18.50;80.20
26964;DHT22;14521;48.148;-1.656;2024-03-08T01:52:25;18.50;80.10
26964;DHT22;14521;48.148;-1.656;2024-03-08T01:55:49;18.50;80.10
26964;DHT22;14521;48.148;-1.656;2024-03-08T01:59:11;18.50;80.10
26964;DHT22;14521;48.148;-1.656;2024-03-08T02:02:34;18.50;80.10
26964;DHT22;14521;48.148;-1.656;2024-03-08T02:05:57;18.50;80.10
26964;DHT22;14521;48.148;-1.656;2024-03-08T02:09:21;18.40;80.10
26964;DHT22;14521;48.148;-1.656;2024-03-08T02:12:45;18.50;80.10
26964;DHT22;14521;48.148;-1.656;2024-03-08T02:16:08;18.50;80.20
26964;DHT22;14521;48.148;-1.656;2024-03-08T02:19:31;18.50;79.90
26964;DHT22;14521;48.148;-1.656;2024-03-08T02:22:55;18.50;80.10
26964;DHT22;14521;48.148;-1.656;2024-03-08T02:26:17;18.40;80.10
26964;DHT22;14521;48.148;-1.656;2024-03-08T02:29:40;18.50;80.10
26964;DHT22;14521;48.148;-1.656;2024-03-08T02:33:08;18.50;80.10
26964;DHT22;14521;48.148;-1.656;2024-03-08T02:36:33;18.50;80.20
26964;DHT22;14521;48.148;-1.656;2024-03-08T02:39:57;18.50;80.00
26964;DHT22;14521;48.148;-1.656;2024-03-08T02:43:20;18.50;80.10
26964;DHT22;14521;48.148;-1.656;2024-03-08T02:46:44;18.50;80.10
26964;DHT22;14521;48.148;-1.656;2024-03-08T02:50:07;18.40;80.10
26964;DHT22;14521;48.148;-1.656;2024-03-08T02:53:30;18.40;80.10
26964;DHT22;14521;48.148;-1.656;2024-03-08T02:56:52;18.40;80.10
26964;DHT22;14521;48.148;-1.656;2024-03-08T03:00:14;18.40;80.20
26964;DHT22;14521;48.148;-1.656;2024-03-08T03:03:38;18.40;80.10
26964;DHT22;14521;48.148;-1.656;2024-03-08T03:07:00;18.40;80.10
26964;DHT22;14521;48.148;-1.656;2024-03-08T03:10:23;18.40;80.10
26964;DHT22;14521;48.148;-1.656;2024-03-08T03:13:45;18.40;80.10
26964;DHT22;14521;48.148;-1.656;2024-03-08T03:17:10;18.40;80.20
26964;DHT22;14521;48.148;-1.656;2024-03-08T03:20:32;18.40;80.00
26964;DHT22;14521;48.148;-1.656;2024-03-08T03:23:55;18.40;80.10
26964;DHT22;14521;48.148;-1.656;2024-03-08T03:27:18;18.40;80.10
26964;DHT22;14521;48.148;-1.656;2024-03-08T03:30:40;18.40;80.10
26964;DHT22;14521;48.148;-1.656;2024-03-08T03:34:03;18.40;79.90
26964;DHT22;14521;48.148;-1.656;2024-03-08T03:37:26;18.40;80.10
26964;DHT22;14521;48.148;-1.656;2024-03-08T03:40:48;18.40;80.10
26964;DHT22;14521;48.148;-1.656;2024-03-08T03:44:14;18.40;80.00
26964;DHT22;14521;48.148;-1.656;2024-03-08T03:47:36;18.40;80.00
26964;DHT22;14521;48.148;-1.656;2024-03-08T03:51:00;18.40;80.00
26964;DHT22;14521;48.148;-1.656;2024-03-08T03:54:22;18.40;80.10
26964;DHT22;14521;48.148;-1.656;2024-03-08T03:57:45;18.40;80.80
26964;DHT22;14521;48.148;-1.656;2024-03-08T04:01:08;18.40;80.10
26964;DHT22;14521;48.148;-1.656;2024-03-08T04:04:31;18.30;80.00
26964;DHT22;14521;48.148;-1.656;2024-03-08T04:07:54;18.30;80.10
26964;DHT22;14521;48.148;-1.656;2024-03-08T04:11:16;18.40;80.10
26964;DHT22;14521;48.148;-1.656;2024-03-08T04:14:41;18.30;80.00
26964;DHT22;14521;48.148;-1.656;2024-03-08T04:18:04;18.30;80.10
26964;DHT22;14521;48.148;-1.656;2024-03-08T04:21:26;18.30;80.10
26964;DHT22;14521;48.148;-1.656;2024-03-08T04:24:49;18.30;80.20
26964;DHT22;14521;48.148;-1.656;2024-03-08T04:28:11;18.30;80.10
26964;DHT22;14521;48.148;-1.656;2024-03-08T04:31:34;18.30;80.20
26964;DHT22;14521;48.148;-1.656;2024-03-08T04:34:56;18.30;80.10
26964;DHT22;14521;48.148;-1.656;2024-03-08T04:38:19;18.30;80.10
26964;DHT22;14521;48.148;-1.656;2024-03-08T04:41:42;18.40;80.10
26964;DHT22;14521;48.148;-1.656;2024-03-08T04:45:05;18.30;80.20
26964;DHT22;14521;48.148;-1.656;2024-03-08T04:48:30;18.30;80.00
26964;DHT22;14521;48.148;-1.656;2024-03-08T04:51:52;18.30;80.20
26964;DHT22;14521;48.148;-1.656;2024-03-08T04:55:15;18.30;80.00
26964;DHT22;14521;48.148;-1.656;2024-03-08T04:58:37;18.30;80.00
26964;DHT22;14521;48.148;-1.656;2024-03-08T05:02:00;18.30;80.00
26964;DHT22;14521;48.148;-1.656;2024-03-08T05:05:22;18.30;80.10
26964;DHT22;14521;48.148;-1.656;2024-03-08T05:08:45;18.30;80.00
26964;DHT22;14521;48.148;-1.656;2024-03-08T05:12:08;18.30;80.00
26964;DHT22;14521;48.148;-1.656;2024-03-08T05:15:31;18.30;80.00
26964;DHT22;14521;48.148;-1.656;2024-03-08T05:18:56;18.30;80.00
26964;DHT22;14521;48.148;-1.656;2024-03-08T05:22:19;18.30;79.90
26964;DHT22;14521;48.148;-1.656;2024-03-08T05:25:41;18.30;79.70
26964;DHT22;14521;48.148;-1.656;2024-03-08T05:29:04;18.40;79.60
26964;DHT22;14521;48.148;-1.656;2024-03-08T05:32:26;18.40;79.70
26964;DHT22;14521;48.148;-1.656;2024-03-08T05:35:52;18.50;79.70
26964;DHT22;14521;48.148;-1.656;2024-03-08T05:39:15;18.50;79.60
26964;DHT22;14521;48.148;-1.656;2024-03-08T05:42:38;18.50;79.60
26964;DHT22;14521;48.148;-1.656;2024-03-08T05:46:00;18.50;79.60
26964;DHT22;14521;48.148;-1.656;2024-03-08T05:49:23;18.60;79.50
26964;DHT22;14521;48.148;-1.656;2024-03-08T05:52:47;18.50;79.30
26964;DHT22;14521;48.148;-1.656;2024-03-08T05:56:09;18.60;79.20
26964;DHT22;14521;48.148;-1.656;2024-03-08T05:59:32;18.60;79.20
26964;DHT22;14521;48.148;-1.656;2024-03-08T06:02:54;18.70;79.10
26964;DHT22;14521;48.148;-1.656;2024-03-08T06:06:17;18.70;79.20
26964;DHT22;14521;48.148;-1.656;2024-03-08T06:09:40;18.70;79.00
26964;DHT22;14521;48.148;-1.656;2024-03-08T06:13:02;18.70;79.10
26964;DHT22;14521;48.148;-1.656;2024-03-08T06:16:28;18.70;79.10
26964;DHT22;14521;48.148;-1.656;2024-03-08T06:19:51;18.90;79.40
26964;DHT22;14521;48.148;-1.656;2024-03-08T06:23:14;18.90;78.90
26964;DHT22;14521;48.148;-1.656;2024-03-08T06:26:40;19.00;78.30
26964;DHT22;14521;48.148;-1.656;2024-03-08T06:30:03;18.50;77.20
26964;DHT22;14521;48.148;-1.656;2024-03-08T06:33:27;18.50;80.70
26964;DHT22;14521;48.148;-1.656;2024-03-08T06:36:50;18.70;80.50
26964;DHT22;14521;48.148;-1.656;2024-03-08T06:40:14;18.80;80.20
26964;DHT22;14521;48.148;-1.656;2024-03-08T06:43:37;18.90;80.20
26964;DHT22;14521;48.148;-1.656;2024-03-08T06:46:59;19.00;80.30
26964;DHT22;14521;48.148;-1.656;2024-03-08T06:50:22;19.00;80.40
26964;DHT22;14521;48.148;-1.656;2024-03-08T06:53:44;19.10;80.60
26964;DHT22;14521;48.148;-1.656;2024-03-08T06:57:07;19.10;81.00
26964;DHT22;14521;48.148;-1.656;2024-03-08T07:00:29;19.10;81.30
26964;DHT22;14521;48.148;-1.656;2024-03-08T07:03:52;19.00;81.30
26964;DHT22;14521;48.148;-1.656;2024-03-08T07:07:14;19.10;81.40
26964;DHT22;14521;48.148;-1.656;2024-03-08T07:10:37;19.00;81.40
26964;DHT22;14521;48.148;-1.656;2024-03-08T07:13:59;19.10;81.00
26964;DHT22;14521;48.148;-1.656;2024-03-08T07:17:25;19.00;78.40
26964;DHT22;14521;48.148;-1.656;2024-03-08T07:20:47;18.80;78.80
26964;DHT22;14521;48.148;-1.656;2024-03-08T07:24:11;18.70;79.50
26964;DHT22;14521;48.148;-1.656;2024-03-08T07:27:39;18.60;79.30
26964;DHT22;14521;48.148;-1.656;2024-03-08T07:31:02;18.60;79.40
26964;DHT22;14521;48.148;-1.656;2024-03-08T07:34:51;18.60;79.40
26964;DHT22;14521;48.148;-1.656;2024-03-08T07:38:13;18.60;79.90
26964;DHT22;14521;48.148;-1.656;2024-03-08T07:41:39;18.60;79.60
26964;DHT22;14521;48.148;-1.656;2024-03-08T07:45:02;18.60;80.40
26964;DHT22;14521;48.148;-1.656;2024-03-08T07:48:24;18.50;79.70
26964;DHT22;14521;48.148;-1.656;2024-03-08T07:51:48;18.60;79.80
26964;DHT22;14521;48.148;-1.656;2024-03-08T07:55:11;18.50;79.60
26964;DHT22;14521;48.148;-1.656;2024-03-08T07:58:35;18.60;79.60
26964;DHT22;14521;48.148;-1.656;2024-03-08T08:01:57;18.60;79.60
26964;DHT22;14521;48.148;-1.656;2024-03-08T08:05:20;18.50;80.20
26964;DHT22;14521;48.148;-1.656;2024-03-08T08:08:42;18.60;80.40
26964;DHT22;14521;48.148;-1.656;2024-03-08T08:12:05;18.70;80.20
26964;DHT22;14521;48.148;-1.656;2024-03-08T08:15:29;18.70;80.40
26964;DHT22;14521;48.148;-1.656;2024-03-08T08:18:51;18.70;80.10
26964;DHT22;14521;48.148;-1.656;2024-03-08T08:22:14;18.70;79.90
26964;DHT22;14521;48.148;-1.656;2024-03-08T08:25:37;18.70;80.20
26964;DHT22;14521;48.148;-1.656;2024-03-08T08:29:00;18.70;80.10
26964;DHT22;14521;48.148;-1.656;2024-03-08T08:32:22;18.80;80.20
26964;DHT22;14521;48.148;-1.656;2024-03-08T08:35:45;18.80;80.20
26964;DHT22;14521;48.148;-1.656;2024-03-08T08:39:07;18.80;80.20
26964;DHT22;14521;48.148;-1.656;2024-03-08T08:42:36;18.80;80.20
26964;DHT22;14521;48.148;-1.656;2024-03-08T08:45:59;18.80;80.20
26964;DHT22;14521;48.148;-1.656;2024-03-08T08:49:22;18.90;80.20
26964;DHT22;14521;48.148;-1.656;2024-03-08T08:52:44;19.00;80.00
26964;DHT22;14521;48.148;-1.656;2024-03-08T08:56:06;19.00;79.70
26964;DHT22;14521;48.148;-1.656;2024-03-08T08:59:32;19.10;79.70
26964;DHT22;14521;48.148;-1.656;2024-03-08T09:02:54;19.00;78.90
26964;DHT22;14521;48.148;-1.656;2024-03-08T09:06:19;18.70;79.70
26964;DHT22;14521;48.148;-1.656;2024-03-08T09:09:42;18.70;79.80
26964;DHT22;14521;48.148;-1.656;2024-03-08T09:13:05;18.80;80.40
26964;DHT22;14521;48.148;-1.656;2024-03-08T09:16:30;18.90;80.70
26964;DHT22;14521;48.148;-1.656;2024-03-08T09:19:53;19.00;79.90
26964;DHT22;14521;48.148;-1.656;2024-03-08T09:23:19;19.00;79.90
26964;DHT22;14521;48.148;-1.656;2024-03-08T09:26:41;19.00;79.50
26964;DHT22;14521;48.148;-1.656;2024-03-08T09:30:05;18.90;79.60
26964;DHT22;14521;48.148;-1.656;2024-03-08T09:33:29;18.90;79.70
26964;DHT22;14521;48.148;-1.656;2024-03-08T09:36:53;19.00;79.70
26964;DHT22;14521;48.148;-1.656;2024-03-08T09:40:15;18.90;79.40
26964;DHT22;14521;48.148;-1.656;2024-03-08T09:43:41;18.90;79.10
26964;DHT22;14521;48.148;-1.656;2024-03-08T09:47:04;18.90;79.20
26964;DHT22;14521;48.148;-1.656;2024-03-08T09:50:27;18.90;79.20
26964;DHT22;14521;48.148;-1.656;2024-03-08T09:53:51;18.80;79.20
26964;DHT22;14521;48.148;-1.656;2024-03-08T09:57:15;18.60;79.60
26964;DHT22;14521;48.148;-1.656;2024-03-08T10:00:40;18.50;79.80
26964;DHT22;14521;48.148;-1.656;2024-03-08T10:04:04;18.40;80.10
26964;DHT22;14521;48.148;-1.656;2024-03-08T10:07:26;18.40;80.30
26964;DHT22;14521;48.148;-1.656;2024-03-08T10:10:50;18.40;80.20
26964;DHT22;14521;48.148;-1.656;2024-03-08T10:14:13;18.50;80.40
26964;DHT22;14521;48.148;-1.656;2024-03-08T10:17:36;18.60;80.10
26964;DHT22;14521;48.148;-1.656;2024-03-08T10:21:06;18.60;79.90
26964;DHT22;14521;48.148;-1.656;2024-03-08T10:24:29;18.70;81.30
26964;DHT22;14521;48.148;-1.656;2024-03-08T10:27:52;18.80;81.00
26964;DHT22;14521;48.148;-1.656;2024-03-08T10:31:18;18.80;80.20
26964;DHT22;14521;48.148;-1.656;2024-03-08T10:34:41;18.80;80.00
26964;DHT22;14521;48.148;-1.656;2024-03-08T10:38:05;18.80;79.60
26964;DHT22;14521;48.148;-1.656;2024-03-08T10:41:31;18.90;80.50
26964;DHT22;14521;48.148;-1.656;2024-03-08T10:45:12;18.90;79.70
26964;DHT22;14521;48.148;-1.656;2024-03-08T10:48:43;18.90;79.20
26964;DHT22;14521;48.148;-1.656;2024-03-08T10:52:06;18.80;79.50
26964;DHT22;14521;48.148;-1.656;2024-03-08T10:55:33;18.60;80.00
26964;DHT22;14521;48.148;-1.656;2024-03-08T10:58:56;18.60;80.00
26964;DHT22;14521;48.148;-1.656;2024-03-08T11:02:19;18.60;80.00
26964;DHT22;14521;48.148;-1.656;2024-03-08T11:05:45;18.70;79.90
26964;DHT22;14521;48.148;-1.656;2024-03-08T11:09:28;18.70;80.80
26964;DHT22;14521;48.148;-1.656;2024-03-08T11:12:52;18.60;79.70
26964;DHT22;14521;48.148;-1.656;2024-03-08T11:19:49;18.60;80.10
26964;DHT22;14521;48.148;-1.656;2024-03-08T11:23:11;18.60;80.10
26964;DHT22;14521;48.148;-1.656;2024-03-08T11:26:34;18.60;80.20
26964;DHT22;14521;48.148;-1.656;2024-03-08T11:30:01;18.60;80.30
26964;DHT22;14521;48.148;-1.656;2024-03-08T11:33:35;18.60;80.00
26964;DHT22;14521;48.148;-1.656;2024-03-08T11:36:58;18.60;80.40
26964;DHT22;14521;48.148;-1.656;2024-03-08T11:40:21;18.60;79.90
26964;DHT22;14521;48.148;-1.656;2024-03-08T11:43:44;18.70;80.30
26964;DHT22;14521;48.148;-1.656;2024-03-08T11:47:11;18.70;79.80
26964;DHT22;14521;48.148;-1.656;2024-03-08T11:50:33;18.70;79.80
26964;DHT22;14521;48.148;-1.656;2024-03-08T11:53:56;18.70;80.00
26964;DHT22;14521;48.148;-1.656;2024-03-08T11:57:18;18.60;79.60
26964;DHT22;14521;48.148;-1.656;2024-03-08T12:00:41;18.70;79.60
26964;DHT22;14521;48.148;-1.656;2024-03-08T12:04:03;18.60;79.30
26964;DHT22;14521;48.148;-1.656;2024-03-08T12:07:28;18.60;79.30
26964;DHT22;14521;48.148;-1.656;2024-03-08T12:10:50;18.60;79.30
26964;DHT22;14521;48.148;-1.656;2024-03-08T12:14:13;18.60;79.30
26964;DHT22;14521;48.148;-1.656;2024-03-08T12:17:35;18.60;79.40
26964;DHT22;14521;48.148;-1.656;2024-03-08T12:21:11;18.60;79.30
26964;DHT22;14521;48.148;-1.656;2024-03-08T12:24:36;18.50;79.30
26964;DHT22;14521;48.148;-1.656;2024-03-08T12:31:36;18.50;79.20
26964;DHT22;14521;48.148;-1.656;2024-03-08T12:34:58;18.50;79.30
26964;DHT22;14521;48.148;-1.656;2024-03-08T12:38:21;18.50;79.30
26964;DHT22;14521;48.148;-1.656;2024-03-08T12:41:49;18.50;79.30
26964;DHT22;14521;48.148;-1.656;2024-03-08T12:45:14;18.50;79.30
26964;DHT22;14521;48.148;-1.656;2024-03-08T12:48:37;18.50;79.30
26964;DHT22;14521;48.148;-1.656;2024-03-08T12:52:02;18.50;79.20
26964;DHT22;14521;48.148;-1.656;2024-03-08T12:55:24;18.40;79.10
26964;DHT22;14521;48.148;-1.656;2024-03-08T12:58:47;18.50;79.60
26964;DHT22;14521;48.148;-1.656;2024-03-08T13:02:09;18.50;79.50
26964;DHT22;14521;48.148;-1.656;2024-03-08T13:05:33;18.50;79.80
26964;DHT22;14521;48.148;-1.656;2024-03-08T13:08:56;18.60;80.00
26964;DHT22;14521;48.148;-1.656;2024-03-08T13:12:23;18.60;80.10
26964;DHT22;14521;48.148;-1.656;2024-03-08T13:15:46;18.60;79.90
26964;DHT22;14521;48.148;-1.656;2024-03-08T13:19:08;18.60;79.70
26964;DHT22;14521;48.148;-1.656;2024-03-08T13:22:31;18.70;80.10
26964;DHT22;14521;48.148;-1.656;2024-03-08T13:25:53;18.70;80.40
26964;DHT22;14521;48.148;-1.656;2024-03-08T13:29:15;18.70;80.10
26964;DHT22;14521;48.148;-1.656;2024-03-08T13:32:39;18.70;80.20
26964;DHT22;14521;48.148;-1.656;2024-03-08T13:36:02;18.70;79.80
26964;DHT22;14521;48.148;-1.656;2024-03-08T13:39:27;18.80;80.30
26964;DHT22;14521;48.148;-1.656;2024-03-08T13:42:51;18.80;80.70
26964;DHT22;14521;48.148;-1.656;2024-03-08T13:46:13;18.80;80.60
26964;DHT22;14521;48.148;-1.656;2024-03-08T13:49:36;18.80;80.40
26964;DHT22;14521;48.148;-1.656;2024-03-08T13:52:58;18.80;80.00
26964;DHT22;14521;48.148;-1.656;2024-03-08T13:56:22;18.70;80.90
26964;DHT22;14521;48.148;-1.656;2024-03-08T13:59:44;18.70;80.30
26964;DHT22;14521;48.148;-1.656;2024-03-08T14:03:06;18.70;79.80
26964;DHT22;14521;48.148;-1.656;2024-03-08T14:06:29;18.60;80.60
26964;DHT22;14521;48.148;-1.656;2024-03-08T14:09:52;18.70;80.80
26964;DHT22;14521;48.148;-1.656;2024-03-08T14:13:15;18.70;81.60
26964;DHT22;14521;48.148;-1.656;2024-03-08T14:16:39;18.70;80.60
26964;DHT22;14521;48.148;-1.656;2024-03-08T14:20:02;18.70;80.80
26964;DHT22;14521;48.148;-1.656;2024-03-08T14:23:24;18.70;80.90
26964;DHT22;14521;48.148;-1.656;2024-03-08T14:26:46;18.70;80.70
26964;DHT22;14521;48.148;-1.656;2024-03-08T14:30:13;18.70;80.70
26964;DHT22;14521;48.148;-1.656;2024-03-08T14:33:35;18.70;80.30
26964;DHT22;14521;48.148;-1.656;2024-03-08T14:37:02;18.70;80.30
26964;DHT22;14521;48.148;-1.656;2024-03-08T14:40:27;18.70;80.50
26964;DHT22;14521;48.148;-1.656;2024-03-08T14:43:50;18.70;80.40
26964;DHT22;14521;48.148;-1.656;2024-03-08T14:47:15;18.80;80.20
26964;DHT22;14521;48.148;-1.656;2024-03-08T14:50:37;18.70;80.10
26964;DHT22;14521;48.148;-1.656;2024-03-08T14:53:59;18.70;80.10
26964;DHT22;14521;48.148;-1.656;2024-03-08T14:57:22;18.70;80.00
26964;DHT22;14521;48.148;-1.656;2024-03-08T15:00:44;18.70;80.10
26964;DHT22;14521;48.148;-1.656;2024-03-08T15:04:10;18.70;80.20
26964;DHT22;14521;48.148;-1.656;2024-03-08T15:07:32;18.70;80.10
26964;DHT22;14521;48.148;-1.656;2024-03-08T15:10:54;18.80;80.10
26964;DHT22;14521;48.148;-1.656;2024-03-08T15:14:17;18.80;80.70
26964;DHT22;14521;48.148;-1.656;2024-03-08T15:17:41;18.70;80.60
26964;DHT22;14521;48.148;-1.656;2024-03-08T15:21:05;18.80;80.80
26964;DHT22;14521;48.148;-1.656;2024-03-08T15:24:30;18.80;80.80
26964;DHT22;14521;48.148;-1.656;2024-03-08T15:27:53;18.80;81.90
26964;DHT22;14521;48.148;-1.656;2024-03-08T15:31:16;18.80;82.00
26964;DHT22;14521;48.148;-1.656;2024-03-08T15:34:42;18.80;82.50
26964;DHT22;14521;48.148;-1.656;2024-03-08T15:38:04;18.80;82.60
26964;DHT22;14521;48.148;-1.656;2024-03-08T15:41:27;18.80;82.20
26964;DHT22;14521;48.148;-1.656;2024-03-08T15:44:51;18.80;82.00
26964;DHT22;14521;48.148;-1.656;2024-03-08T15:48:16;18.80;82.30
26964;DHT22;14521;48.148;-1.656;2024-03-08T15:51:39;18.90;80.90
26964;DHT22;14521;48.148;-1.656;2024-03-08T15:55:03;18.70;81.20
26964;DHT22;14521;48.148;-1.656;2024-03-08T15:58:27;18.70;81.10
26964;DHT22;14521;48.148;-1.656;2024-03-08T16:01:49;18.80;81.00
26964;DHT22;14521;48.148;-1.656;2024-03-08T16:05:14;18.80;81.10
26964;DHT22;14521;48.148;-1.656;2024-03-08T16:08:36;18.80;81.10
26964;DHT22;14521;48.148;-1.656;2024-03-08T16:12:01;18.80;81.10
26964;DHT22;14521;48.148;-1.656;2024-03-08T16:15:24;18.80;81.10
26964;DHT22;14521;48.148;-1.656;2024-03-08T16:18:48;18.80;81.00
26964;DHT22;14521;48.148;-1.656;2024-03-08T16:22:10;18.80;81.00
26964;DHT22;14521;48.148;-1.656;2024-03-08T16:25:32;18.80;81.10
26964;DHT22;14521;48.148;-1.656;2024-03-08T16:28:55;18.80;81.00
26964;DHT22;14521;48.148;-1.656;2024-03-08T16:32:19;18.80;81.00
26964;DHT22;14521;48.148;-1.656;2024-03-08T16:35:42;18.80;80.90
26964;DHT22;14521;48.148;-1.656;2024-03-08T16:39:08;18.80;80.90
26964;DHT22;14521;48.148;-1.656;2024-03-08T16:42:31;18.80;80.80
26964;DHT22;14521;48.148;-1.656;2024-03-08T16:45:54;18.80;80.90
26964;DHT22;14521;48.148;-1.656;2024-03-08T16:49:18;18.80;80.90
26964;DHT22;14521;48.148;-1.656;2024-03-08T16:52:40;18.80;81.00
26964;DHT22;14521;48.148;-1.656;2024-03-08T16:56:03;18.90;80.90
26964;DHT22;14521;48.148;-1.656;2024-03-08T16:59:27;18.90;81.00
26964;DHT22;14521;48.148;-1.656;2024-03-08T17:02:49;18.90;81.00
26964;DHT22;14521;48.148;-1.656;2024-03-08T17:06:12;18.80;81.00
26964;DHT22;14521;48.148;-1.656;2024-03-08T17:09:34;18.90;81.20
26964;DHT22;14521;48.148;-1.656;2024-03-08T17:12:58;18.90;81.00
26964;DHT22;14521;48.148;-1.656;2024-03-08T17:16:22;18.90;81.10
26964;DHT22;14521;48.148;-1.656;2024-03-08T17:19:47;18.90;81.10
26964;DHT22;14521;48.148;-1.656;2024-03-08T17:23:12;18.80;81.10
26964;DHT22;14521;48.148;-1.656;2024-03-08T17:26:38;18.80;81.00
26964;DHT22;14521;48.148;-1.656;2024-03-08T17:30:01;18.80;81.10
26964;DHT22;14521;48.148;-1.656;2024-03-08T17:33:31;18.80;81.20
26964;DHT22;14521;48.148;-1.656;2024-03-08T17:36:57;18.80;81.20
26964;DHT22;14521;48.148;-1.656;2024-03-08T17:40:20;18.80;81.20
26964;DHT22;14521;48.148;-1.656;2024-03-08T17:43:45;18.80;81.20
26964;DHT22;14521;48.148;-1.656;2024-03-08T17:47:08;18.80;81.20
26964;DHT22;14521;48.148;-1.656;2024-03-08T17:50:30;18.70;81.40
26964;DHT22;14521;48.148;-1.656;2024-03-08T17:53:53;18.80;81.40
26964;DHT22;14521;48.148;-1.656;2024-03-08T17:57:15;18.70;81.40
26964;DHT22;14521;48.148;-1.656;2024-03-08T18:00:39;18.70;81.50
26964;DHT22;14521;48.148;-1.656;2024-03-08T18:04:03;18.70;81.60
26964;DHT22;14521;48.148;-1.656;2024-03-08T18:07:28;18.70;81.60
26964;DHT22;14521;48.148;-1.656;2024-03-08T18:10:51;18.70;81.60
26964;DHT22;14521;48.148;-1.656;2024-03-08T18:14:15;18.70;81.70
26964;DHT22;14521;48.148;-1.656;2024-03-08T18:17:38;18.70;81.70
26964;DHT22;14521;48.148;-1.656;2024-03-08T18:21:02;18.70;81.70
26964;DHT22;14521;48.148;-1.656;2024-03-08T18:24:27;18.70;81.70
26964;DHT22;14521;48.148;-1.656;2024-03-08T18:27:50;18.70;81.70
26964;DHT22;14521;48.148;-1.656;2024-03-08T18:31:12;18.60;81.70
26964;DHT22;14521;48.148;-1.656;2024-03-08T18:34:36;18.60;81.70
26964;DHT22;14521;48.148;-1.656;2024-03-08T18:38:07;18.60;82.10
26964;DHT22;14521;48.148;-1.656;2024-03-08T18:41:29;18.60;82.40
26964;DHT22;14521;48.148;-1.656;2024-03-08T18:44:56;18.70;81.50
26964;DHT22;14521;48.148;-1.656;2024-03-08T18:48:18;18.70;82.80
26964;DHT22;14521;48.148;-1.656;2024-03-08T18:51:40;18.80;83.80
26964;DHT22;14521;48.148;-1.656;2024-03-08T18:55:05;18.80;83.60
26964;DHT22;14521;48.148;-1.656;2024-03-08T18:58:50;18.90;84.30
26964;DHT22;14521;48.148;-1.656;2024-03-08T19:02:12;18.90;84.10
26964;DHT22;14521;48.148;-1.656;2024-03-08T19:05:37;18.90;84.60
26964;DHT22;14521;48.148;-1.656;2024-03-08T19:09:03;18.90;85.40
26964;DHT22;14521;48.148;-1.656;2024-03-08T19:12:26;19.00;85.00
26964;DHT22;14521;48.148;-1.656;2024-03-08T19:15:53;18.90;85.40
26964;DHT22;14521;48.148;-1.656;2024-03-08T19:19:15;18.90;85.20
26964;DHT22;14521;48.148;-1.656;2024-03-08T19:22:39;18.90;85.00
26964;DHT22;14521;48.148;-1.656;2024-03-08T19:26:01;18.90;85.10
26964;DHT22;14521;48.148;-1.656;2024-03-08T19:29:24;18.90;85.20
26964;DHT22;14521;48.148;-1.656;2024-03-08T19:32:47;18.90;84.70
26964;DHT22;14521;48.148;-1.656;2024-03-08T19:36:09;18.90;84.30
26964;DHT22;14521;48.148;-1.656;2024-03-08T19:39:34;18.90;84.80
26964;DHT22;14521;48.148;-1.656;2024-03-08T19:43:02;18.90;84.00
26964;DHT22;14521;48.148;-1.656;2024-03-08T19:46:24;18.90;85.30
26964;DHT22;14521;48.148;-1.656;2024-03-08T19:49:47;18.90;85.70
26964;DHT22;14521;48.148;-1.656;2024-03-08T19:53:09;18.90;84.80
26964;DHT22;14521;48.148;-1.656;2024-03-08T19:56:32;18.90;85.10
26964;DHT22;14521;48.148;-1.656;2024-03-08T19:59:56;18.90;84.70
26964;DHT22;14521;48.148;-1.656;2024-03-08T20:03:19;18.90;84.70
26964;DHT22;14521;48.148;-1.656;2024-03-08T20:06:46;18.90;85.10
26964;DHT22;14521;48.148;-1.656;2024-03-08T20:10:13;18.90;86.10
26964;DHT22;14521;48.148;-1.656;2024-03-08T20:13:37;18.90;85.60
26964;DHT22;14521;48.148;-1.656;2024-03-08T20:17:01;18.90;85.30
26964;DHT22;14521;48.148;-1.656;2024-03-08T20:20:26;18.90;84.60
26964;DHT22;14521;48.148;-1.656;2024-03-08T20:23:48;18.90;85.20
26964;DHT22;14521;48.148;-1.656;2024-03-08T20:27:11;18.90;85.10
26964;DHT22;14521;48.148;-1.656;2024-03-08T20:30:34;18.90;85.40
26964;DHT22;14521;48.148;-1.656;2024-03-08T20:33:56;18.90;86.10
26964;DHT22;14521;48.148;-1.656;2024-03-08T20:37:18;18.90;85.50
26964;DHT22;14521;48.148;-1.656;2024-03-08T20:40:43;18.90;85.80
26964;DHT22;14521;48.148;-1.656;2024-03-08T20:44:08;18.90;85.60
26964;DHT22;14521;48.148;-1.656;2024-03-08T20:47:30;18.90;86.10
26964;DHT22;14521;48.148;-1.656;2024-03-08T20:50:57;18.80;85.30
26964;DHT22;14521;48.148;-1.656;2024-03-08T20:54:21;18.80;85.50
26964;DHT22;14521;48.148;-1.656;2024-03-08T20:57:44;18.90;86.00
26964;DHT22;14521;48.148;-1.656;2024-03-08T21:01:12;18.80;85.10
26964;DHT22;14521;48.148;-1.656;2024-03-08T21:04:36;18.80;85.80
26964;DHT22;14521;48.148;-1.656;2024-03-08T21:07:59;18.80;85.30
26964;DHT22;14521;48.148;-1.656;2024-03-08T21:11:22;18.80;85.60